BOS weather

General Edward Lawrence Logan International Airport
Boston, Massachusetts, United States

Public forecast

Using degrees Fahrenheit for public forecast. Weather courtesy of forecast.io.

METAR (pilot weather report)

Retrieved 2018/12/13 03:54 UTC (26 minutes ago):

KBOS 130354Z 33008KT 10SM FEW250 M04/M16 A3034 RMK AO2 SLP274 T10391156

TAF (pilot weather forecast)

Forecast is more than 12 hours old.

Retrieved 2018/12/12 00:29 UTC (1 day ago):

TAF KBOS 122325Z 1300/1406 34010KT P6SM FEW250 FM131000 01006KT P6SM BKN025 FM131500 05005KT P6SM BKN070 FM132300 15004KT P6SM BKN040 FM140100 15004KT P6SM SCT060 FM140500 20004KT P6SM SCT100